Time;durP1;ratioP1;P1;durP2;ratioP2;P2;SDS_P1;SDS_P2;PMS_P1;PMS_P2;Temp;Humidity;BMP_temperature;BMP_pressure;BME280_temperature;BME280_humidity;BME280_pressure;Samples;Min_cycle;Max_cycle;Signal;HPM_P1;HPM_P2
2022/08/11 00:01:07;;;;;;;1.83;1.63;;;;;;;;;;5046357;28;20195;-65
2022/08/11 00:03:47;;;;;;;2.07;1.83;;;;;;;;;;5044602;28;20194;-66
2022/08/11 00:06:41;;;;;;;1.93;1.80;;;;;;;;;;5043655;28;20215;-65
2022/08/11 00:09:15;;;;;;;1.93;1.73;;;;;;;;;;5017279;28;20211;-66
2022/08/11 00:12:00;;;;;;;1.90;1.80;;;;;;;;;;5035228;28;20537;-66
2022/08/11 00:14:31;;;;;;;1.93;1.67;;;;;;;;;;5043503;28;20205;-65
2022/08/11 00:17:10;;;;;;;1.87;1.77;;;;;;;;;;5027468;28;20616;-65
2022/08/11 00:19:47;;;;;;;1.60;1.50;;;;;;;;;;5008509;28;20190;-66
2022/08/11 00:22:45;;;;;;;2.10;1.80;;;;;;;;;;5029455;28;20236;-66
2022/08/11 00:25:19;;;;;;;1.90;1.80;;;;;;;;;;5040338;28;20194;-66
2022/08/11 00:27:50;;;;;;;1.70;1.60;;;;;;;;;;5039897;28;20213;-66
2022/08/11 00:30:26;;;;;;;1.70;1.57;;;;;;;;;;5028155;28;20194;-65
2022/08/11 00:32:59;;;;;;;1.73;1.63;;;;;;;;;;5034471;28;20249;-65
2022/08/11 00:35:32;;;;;;;1.80;1.70;;;;;;;;;;5023510;28;20297;-65
2022/08/11 00:38:25;;;;;;;2.00;1.90;;;;;;;;;;5027423;28;20202;-66
2022/08/11 00:41:07;;;;;;;2.00;1.80;;;;;;;;;;5041427;28;20208;-66
2022/08/11 00:44:03;;;;;;;1.43;1.33;;;;;;;;;;5023411;28;20198;-66
2022/08/11 00:46:53;;;;;;;1.73;1.63;;;;;;;;;;5030179;28;20211;-66
2022/08/11 00:49:34;;;;;;;2.10;1.90;;;;;;;;;;5053175;28;20186;-65
2022/08/11 00:52:25;;;;;;;1.70;1.60;;;;;;;;;;5064218;28;20210;-65
2022/08/11 00:55:16;;;;;;;2.97;1.80;;;;;;;;;;5055921;28;20196;-65
2022/08/11 00:58:05;;;;;;;1.63;1.53;;;;;;;;;;5046929;28;20691;-65
2022/08/11 01:00:46;;;;;;;1.77;1.67;;;;;;;;;;5064139;28;21454;-66
2022/08/11 01:03:31;;;;;;;1.60;1.50;;;;;;;;;;5054097;28;20280;-66
2022/08/11 01:06:12;;;;;;;1.77;1.67;;;;;;;;;;5048729;28;20193;-66
2022/08/11 01:08:59;;;;;;;1.80;1.70;;;;;;;;;;5039461;28;20206;-66
2022/08/11 01:11:59;;;;;;;1.50;1.40;;;;;;;;;;5050493;28;20214;-65
2022/08/11 01:14:47;;;;;;;1.70;1.60;;;;;;;;;;5062379;28;20197;-66
2022/08/11 01:17:37;;;;;;;1.83;1.73;;;;;;;;;;5054473;28;20206;-66
2022/08/11 01:20:25;;;;;;;1.43;1.33;;;;;;;;;;5043926;28;20191;-65
2022/08/11 01:23:36;;;;;;;1.80;1.50;;;;;;;;;;5061769;28;20264;-66
2022/08/11 01:26:13;;;;;;;1.77;1.60;;;;;;;;;;5054583;28;20202;-67
2022/08/11 01:28:53;;;;;;;1.67;1.57;;;;;;;;;;5046972;28;20198;-66
2022/08/11 01:31:25;;;;;;;1.60;1.50;;;;;;;;;;5054236;28;20235;-65
2022/08/11 01:34:14;;;;;;;1.50;1.40;;;;;;;;;;5048563;28;20209;-66
2022/08/11 01:37:04;;;;;;;2.20;1.40;;;;;;;;;;5064181;28;20202;-66
2022/08/11 01:39:55;;;;;;;1.73;1.63;;;;;;;;;;5050438;28;20205;-66
2022/08/11 01:45:49;;;;;;;2.83;1.70;;;;;;;;;;5062557;28;20193;-66
2022/08/11 01:48:30;;;;;;;1.83;1.40;;;;;;;;;;5078535;28;20611;-66
2022/08/11 01:51:17;;;;;;;2.37;1.73;;;;;;;;;;5086209;28;20235;-66
2022/08/11 01:53:58;;;;;;;1.67;1.57;;;;;;;;;;5087740;28;20223;-66
2022/08/11 01:57:11;;;;;;;1.70;1.60;;;;;;;;;;5081514;28;20197;-66
2022/08/11 01:59:49;;;;;;;1.47;1.37;;;;;;;;;;5079548;28;20205;-66
2022/08/11 02:02:46;;;;;;;1.40;1.30;;;;;;;;;;5077023;28;20204;-66
2022/08/11 02:05:42;;;;;;;1.43;1.33;;;;;;;;;;5087708;28;20189;-66
2022/08/11 02:08:25;;;;;;;1.60;1.50;;;;;;;;;;5079941;28;20193;-66
2022/08/11 02:14:01;;;;;;;1.77;1.40;;;;;;;;;;5072607;28;20209;-66
2022/08/11 02:16:45;;;;;;;2.30;1.50;;;;;;;;;;5082532;28;20205;-66
2022/08/11 02:26:02;;;;;;;1.60;1.50;;;;;;;;;;4988896;28;20529;-66
2022/08/11 02:28:40;;;;;;;1.43;1.33;;;;;;;;;;5079004;28;20217;-66
2022/08/11 02:34:55;;;;;;;1.70;1.57;;;;;;;;;;5063952;28;20594;-66
2022/08/11 02:37:35;;;;;;;1.60;1.50;;;;;;;;;;5083640;28;20189;-66
2022/08/11 02:40:35;;;;;;;1.40;1.30;;;;;;;;;;5080349;28;20194;-66
2022/08/11 02:43:06;;;;;;;3.00;1.60;;;;;;;;;;5078057;28;20193;-66
2022/08/11 02:45:53;;;;;;;1.60;1.50;;;;;;;;;;5066921;28;20201;-66
2022/08/11 02:51:52;;;;;;;1.73;1.63;;;;;;;;;;5058292;28;20218;-65
2022/08/11 02:54:27;;;;;;;1.70;1.50;;;;;;;;;;5082250;28;20204;-66
2022/08/11 02:57:13;;;;;;;1.43;1.33;;;;;;;;;;5085795;28;20191;-66
2022/08/11 02:59:57;;;;;;;1.60;1.50;;;;;;;;;;5071212;28;20190;-66
2022/08/11 03:02:44;;;;;;;1.63;1.33;;;;;;;;;;5067814;28;20703;-66
2022/08/11 03:05:27;;;;;;;1.53;1.43;;;;;;;;;;5067744;28;20657;-65
2022/08/11 03:08:07;;;;;;;2.60;1.50;;;;;;;;;;5086673;28;20199;-66
2022/08/11 03:16:43;;;;;;;1.63;1.40;;;;;;;;;;5083205;28;20219;-66
2022/08/11 03:16:50;;;;;;;1.43;1.33;;;;;;;;;;5074062;28;20676;-66
2022/08/11 03:19:45;;;;;;;2.20;1.33;;;;;;;;;;5082534;28;20204;-66
2022/08/11 03:22:39;;;;;;;1.33;1.23;;;;;;;;;;5066121;28;20240;-66
2022/08/11 03:25:30;;;;;;;1.30;1.20;;;;;;;;;;5074908;28;20215;-66
2022/08/11 03:28:29;;;;;;;1.30;1.20;;;;;;;;;;5080506;28;20217;-66
2022/08/11 03:31:18;;;;;;;1.33;1.23;;;;;;;;;;5074842;28;20221;-66
2022/08/11 03:34:04;;;;;;;1.40;1.30;;;;;;;;;;5069374;28;20300;-66
2022/08/11 03:36:55;;;;;;;1.30;1.20;;;;;;;;;;5070301;28;20278;-66
2022/08/11 03:39:45;;;;;;;1.53;1.40;;;;;;;;;;5084934;28;20185;-66
2022/08/11 03:42:29;;;;;;;1.50;1.40;;;;;;;;;;5076593;28;20227;-66
2022/08/11 03:45:40;;;;;;;1.50;1.40;;;;;;;;;;5085777;28;20235;-66
2022/08/11 03:48:10;;;;;;;1.73;1.63;;;;;;;;;;5085879;28;20240;-66
2022/08/11 03:51:03;;;;;;;1.47;1.40;;;;;;;;;;5087982;28;20203;-66
2022/08/11 03:53:51;;;;;;;1.57;1.47;;;;;;;;;;5075066;28;20239;-66
2022/08/11 03:56:43;;;;;;;1.47;1.37;;;;;;;;;;5084354;28;20194;-66
2022/08/11 03:59:16;;;;;;;1.50;1.40;;;;;;;;;;5079457;28;20265;-66
2022/08/11 04:02:04;;;;;;;1.47;1.37;;;;;;;;;;5067006;28;20205;-66
2022/08/11 04:04:51;;;;;;;1.30;1.20;;;;;;;;;;5082170;28;20276;-66
2022/08/11 04:07:40;;;;;;;1.60;1.50;;;;;;;;;;5083234;28;20658;-64
2022/08/11 04:10:39;;;;;;;1.27;1.20;;;;;;;;;;5072815;28;20241;-65
2022/08/11 04:13:26;;;;;;;1.40;1.30;;;;;;;;;;5076676;28;20208;-65
2022/08/11 04:16:20;;;;;;;1.50;1.40;;;;;;;;;;5085117;28;20196;-64
2022/08/11 04:18:51;;;;;;;1.43;1.33;;;;;;;;;;5065825;28;20249;-64
2022/08/11 04:21:38;;;;;;;1.50;1.40;;;;;;;;;;5086166;28;20209;-65
2022/08/11 04:24:35;;;;;;;1.53;1.43;;;;;;;;;;5086544;28;20188;-65
2022/08/11 04:27:27;;;;;;;1.43;1.33;;;;;;;;;;5075348;28;20209;-65
2022/08/11 04:30:17;;;;;;;1.93;1.20;;;;;;;;;;4982843;28;20721;-65
2022/08/11 04:33:01;;;;;;;1.33;1.23;;;;;;;;;;5078365;28;20212;-65
2022/08/11 04:35:43;;;;;;;1.50;1.40;;;;;;;;;;5073633;28;20218;-66
2022/08/11 04:38:21;;;;;;;1.77;1.40;;;;;;;;;;5084918;28;20208;-65
2022/08/11 04:41:13;;;;;;;1.40;1.30;;;;;;;;;;5075158;28;20205;-65
2022/08/11 04:44:03;;;;;;;1.67;1.30;;;;;;;;;;5084448;28;20201;-65
2022/08/11 04:46:57;;;;;;;1.50;1.40;;;;;;;;;;5080635;28;20233;-65
2022/08/11 05:02:17;;;;;;;1.60;1.50;;;;;;;;;;5063939;28;20271;-65
2022/08/11 05:07:59;;;;;;;1.33;1.23;;;;;;;;;;5059652;28;20216;-65
2022/08/11 05:10:48;;;;;;;1.27;1.17;;;;;;;;;;5049583;28;20214;-65
2022/08/11 05:34:56;;;;;;;1.40;1.30;;;;;;;;;;5045672;28;20206;-65
2022/08/11 05:37:31;;;;;;;1.40;1.30;;;;;;;;;;5054642;28;20194;-64
2022/08/11 05:57:36;;;;;;;1.70;1.53;;;;;;;;;;5058188;28;20220;-65
2022/08/11 06:00:19;;;;;;;1.80;1.70;;;;;;;;;;5046707;28;20201;-65
2022/08/11 06:02:57;;;;;;;1.37;1.27;;;;;;;;;;5062399;28;20187;-65
2022/08/11 06:05:41;;;;;;;2.67;1.70;;;;;;;;;;5061808;28;20688;-65
2022/08/11 06:08:15;;;;;;;1.80;1.70;;;;;;;;;;5059166;28;20626;-65
2022/08/11 06:10:48;;;;;;;2.63;1.57;;;;;;;;;;5055413;28;20244;-65
2022/08/11 06:13:22;;;;;;;3.37;1.60;;;;;;;;;;5061795;28;20226;-64
2022/08/11 06:15:54;;;;;;;1.57;1.47;;;;;;;;;;5061708;28;20632;-64
2022/08/11 06:18:25;;;;;;;1.87;1.70;;;;;;;;;;5048744;28;20194;-65
2022/08/11 06:20:56;;;;;;;1.73;1.63;;;;;;;;;;5048766;28;20674;-65
2022/08/11 06:23:31;;;;;;;1.50;1.40;;;;;;;;;;5049977;28;20616;-65
2022/08/11 06:26:07;;;;;;;2.37;1.70;;;;;;;;;;5051974;28;20200;-65
2022/08/11 06:28:49;;;;;;;1.77;1.53;;;;;;;;;;5047906;28;20197;-65
2022/08/11 06:31:23;;;;;;;1.70;1.60;;;;;;;;;;5068306;28;20209;-65
2022/08/11 06:34:00;;;;;;;1.80;1.70;;;;;;;;;;5059574;28;20858;-65
2022/08/11 06:37:01;;;;;;;1.83;1.57;;;;;;;;;;5066303;28;20675;-65
2022/08/11 06:39:53;;;;;;;2.23;2.03;;;;;;;;;;5035345;28;20408;-64
2022/08/11 06:42:41;;;;;;;1.60;1.50;;;;;;;;;;5052325;28;20252;-65
2022/08/11 06:45:12;;;;;;;1.60;1.50;;;;;;;;;;5082241;28;20243;-65
2022/08/11 06:47:49;;;;;;;1.80;1.70;;;;;;;;;;5046331;28;20448;-64
2022/08/11 06:53:12;;;;;;;1.83;1.73;;;;;;;;;;5048558;28;20550;-65
2022/08/11 07:01:47;;;;;;;1.90;1.80;;;;;;;;;;5044999;28;20198;-66
2022/08/11 07:04:29;;;;;;;2.90;1.70;;;;;;;;;;4980919;28;20244;-67
2022/08/11 07:16:16;;;;;;;2.07;1.77;;;;;;;;;;5040572;28;20206;-65
2022/08/11 07:30:25;;;;;;;1.80;1.70;;;;;;;;;;5043517;28;20202;-64
2022/08/11 07:33:00;;;;;;;1.80;1.67;;;;;;;;;;5031607;28;20559;-64
2022/08/11 07:35:41;;;;;;;1.73;1.63;;;;;;;;;;5038498;28;20218;-64
2022/08/11 07:38:42;;;;;;;1.80;1.70;;;;;;;;;;5035804;28;20627;-64
2022/08/11 07:41:17;;;;;;;1.87;1.77;;;;;;;;;;5029664;28;20213;-64
2022/08/11 07:43:48;;;;;;;1.83;1.73;;;;;;;;;;5044345;28;20245;-64
2022/08/11 07:54:49;;;;;;;1.80;1.70;;;;;;;;;;5081933;28;20201;-64
2022/08/11 08:17:56;;;;;;;3.47;1.90;;;;;;;;;;5083586;28;20212;-66
2022/08/11 08:21:10;;;;;;;2.10;1.90;;;;;;;;;;5073486;28;20193;-66
2022/08/11 08:23:51;;;;;;;1.90;1.80;;;;;;;;;;5069225;28;20327;-66
2022/08/11 08:32:20;;;;;;;2.07;1.87;;;;;;;;;;5075946;28;20303;-65
2022/08/11 08:34:51;;;;;;;2.40;2.20;;;;;;;;;;5071351;28;20234;-65
2022/08/11 08:37:23;;;;;;;1.90;1.70;;;;;;;;;;5081317;28;20732;-65
2022/08/11 08:40:14;;;;;;;2.53;1.83;;;;;;;;;;5063913;28;20211;-65
2022/08/11 08:42:52;;;;;;;2.30;2.10;;;;;;;;;;5060964;28;20270;-65
2022/08/11 08:45:21;;;;;;;2.23;2.00;;;;;;;;;;5067655;28;20729;-65
2022/08/11 08:48:19;;;;;;;2.07;1.90;;;;;;;;;;5072464;28;20236;-65
2022/08/11 08:53:53;;;;;;;1.90;1.80;;;;;;;;;;5078883;28;20213;-65
2022/08/11 08:56:27;;;;;;;3.37;2.20;;;;;;;;;;5070980;28;20201;-65
2022/08/11 08:59:01;;;;;;;3.60;2.20;;;;;;;;;;5074550;28;20626;-65
2022/08/11 09:01:31;;;;;;;2.07;1.87;;;;;;;;;;5063006;28;20193;-65
2022/08/11 09:04:02;;;;;;;2.17;1.73;;;;;;;;;;5077649;28;20276;-65
2022/08/11 09:06:43;;;;;;;2.73;2.00;;;;;;;;;;5073853;28;20203;-65
2022/08/11 09:09:20;;;;;;;3.13;1.90;;;;;;;;;;5078353;28;20216;-65
2022/08/11 09:11:56;;;;;;;3.27;2.07;;;;;;;;;;5069621;28;20399;-65
2022/08/11 09:17:43;;;;;;;2.73;2.00;;;;;;;;;;5063594;28;20189;-65
2022/08/11 09:20:25;;;;;;;4.20;1.80;;;;;;;;;;5053271;28;20196;-65
2022/08/11 09:29:06;;;;;;;2.47;2.27;;;;;;;;;;5071675;28;20224;-65
2022/08/11 09:31:40;;;;;;;2.87;2.20;;;;;;;;;;5048957;28;20251;-65
2022/08/11 09:34:10;;;;;;;2.30;2.10;;;;;;;;;;5060188;28;20237;-65
2022/08/11 09:45:36;;;;;;;2.50;2.30;;;;;;;;;;5014840;28;20214;-65
2022/08/11 09:48:08;;;;;;;2.83;2.17;;;;;;;;;;5070499;28;20240;-66
2022/08/11 09:50:43;;;;;;;3.87;2.10;;;;;;;;;;5085840;28;20288;-65
2022/08/11 09:53:12;;;;;;;2.77;2.20;;;;;;;;;;5070475;28;20221;-65
2022/08/11 09:58:12;;;;;;;2.17;1.90;;;;;;;;;;5079407;28;20264;-65
2022/08/11 09:58:59;;;;;;;2.30;2.10;;;;;;;;;;5078470;28;20285;-65
2022/08/11 10:02:00;;;;;;;2.50;2.30;;;;;;;;;;5082971;28;20196;-65
2022/08/11 10:04:48;;;;;;;2.47;2.27;;;;;;;;;;5066579;28;20312;-65
2022/08/11 10:07:19;;;;;;;2.43;1.90;;;;;;;;;;5085306;28;20196;-69
2022/08/11 10:09:57;;;;;;;2.47;2.10;;;;;;;;;;5076841;28;20252;-66
2022/08/11 10:12:36;;;;;;;3.07;2.20;;;;;;;;;;5068282;28;20262;-65
2022/08/11 10:15:37;;;;;;;2.30;2.10;;;;;;;;;;5066631;28;20241;-66
2022/08/11 10:18:41;;;;;;;2.50;2.13;;;;;;;;;;5076921;28;20215;-65
2022/08/11 10:21:35;;;;;;;5.10;2.30;;;;;;;;;;5088072;28;20206;-65
2022/08/11 10:26:59;;;;;;;2.27;2.07;;;;;;;;;;5071363;28;20197;-65
2022/08/11 10:35:29;;;;;;;2.20;2.00;;;;;;;;;;5068493;28;20222;-65
2022/08/11 10:37:57;;;;;;;2.53;2.27;;;;;;;;;;5072000;28;20212;-65
2022/08/11 10:40:40;;;;;;;4.13;2.30;;;;;;;;;;5085858;28;20254;-65
2022/08/11 10:43:12;;;;;;;2.53;2.33;;;;;;;;;;5062105;28;20188;-66
2022/08/11 10:48:55;;;;;;;6.17;2.27;;;;;;;;;;5077672;28;20328;-65
2022/08/11 11:00:35;;;;;;;2.43;2.23;;;;;;;;;;5076547;28;20185;-65
2022/08/11 11:03:06;;;;;;;4.50;2.30;;;;;;;;;;5067616;28;20189;-65
2022/08/11 11:05:53;;;;;;;2.63;2.17;;;;;;;;;;5068564;28;20194;-65
2022/08/11 11:08:54;;;;;;;2.47;2.07;;;;;;;;;;5069094;28;20193;-65
2022/08/11 11:20:27;;;;;;;2.53;2.30;;;;;;;;;;5073592;28;20198;-65
2022/08/11 11:23:25;;;;;;;2.30;2.10;;;;;;;;;;5076863;28;20213;-66
2022/08/11 11:26:18;;;;;;;2.33;2.13;;;;;;;;;;5082959;28;20548;-66
2022/08/11 11:29:19;;;;;;;2.37;2.17;;;;;;;;;;5073173;28;20209;-65
2022/08/11 11:31:58;;;;;;;2.83;2.20;;;;;;;;;;5070626;28;20200;-65
2022/08/11 11:34:37;;;;;;;2.13;1.93;;;;;;;;;;5069707;28;20245;-65
2022/08/11 11:37:20;;;;;;;3.30;2.10;;;;;;;;;;5083254;28;20193;-65
2022/08/11 11:39:50;;;;;;;2.53;2.17;;;;;;;;;;5079022;28;20203;-65
2022/08/11 11:42:23;;;;;;;2.93;2.03;;;;;;;;;;5077533;28;20281;-65
2022/08/11 11:44:56;;;;;;;3.37;2.17;;;;;;;;;;5068256;28;20209;-65
2022/08/11 11:47:30;;;;;;;1.90;1.70;;;;;;;;;;5069128;28;20268;-65
2022/08/11 11:50:09;;;;;;;2.30;2.10;;;;;;;;;;5072089;28;20182;-65
2022/08/11 11:52:40;;;;;;;2.47;2.27;;;;;;;;;;5074073;28;20193;-65
2022/08/11 11:55:11;;;;;;;2.43;2.23;;;;;;;;;;5073714;28;20245;-64
2022/08/11 12:03:25;;;;;;;2.40;2.20;;;;;;;;;;5063659;28;20654;-65
2022/08/11 12:05:58;;;;;;;2.60;2.20;;;;;;;;;;5061605;28;20196;-65
2022/08/11 12:08:29;;;;;;;2.43;2.23;;;;;;;;;;5069921;28;20259;-65
2022/08/11 12:13:56;;;;;;;2.33;2.23;;;;;;;;;;5079687;28;20993;-66
2022/08/11 12:16:28;;;;;;;2.07;1.87;;;;;;;;;;5078230;28;20659;-65
2022/08/11 12:19:10;;;;;;;2.37;2.17;;;;;;;;;;5077958;28;20194;-65
2022/08/11 12:27:24;;;;;;;3.07;2.57;;;;;;;;;;5070601;28;20188;-65
2022/08/11 12:29:54;;;;;;;2.63;2.43;;;;;;;;;;5081858;28;20946;-65
2022/08/11 12:32:30;;;;;;;3.13;2.33;;;;;;;;;;5085466;28;20276;-65
2022/08/11 12:35:01;;;;;;;2.60;2.40;;;;;;;;;;5081782;28;20246;-65
2022/08/11 12:37:36;;;;;;;2.70;2.50;;;;;;;;;;5059808;28;20196;-65
2022/08/11 12:46:32;;;;;;;2.20;2.00;;;;;;;;;;5074671;28;20209;-65
2022/08/11 12:52:05;;;;;;;2.30;2.10;;;;;;;;;;5072149;28;20188;-65
2022/08/11 12:54:49;;;;;;;2.50;2.30;;;;;;;;;;5074653;28;20229;-65
2022/08/11 13:06:02;;;;;;;2.70;2.30;;;;;;;;;;5051348;28;20306;-66
2022/08/11 13:08:38;;;;;;;2.40;2.20;;;;;;;;;;5063617;28;20225;-66
2022/08/11 13:14:21;;;;;;;2.53;2.20;;;;;;;;;;5085448;28;20217;-65
2022/08/11 13:19:45;;;;;;;2.50;2.30;;;;;;;;;;5080116;28;20197;-65
2022/08/11 13:22:18;;;;;;;2.60;2.40;;;;;;;;;;5076054;28;20657;-65
2022/08/11 13:24:49;;;;;;;2.30;2.10;;;;;;;;;;5068431;28;20201;-65
2022/08/11 13:27:24;;;;;;;2.03;1.93;;;;;;;;;;5062294;28;20275;-65
2022/08/11 13:31:09;;;;;;;2.60;2.10;;;;;;;;;;5068204;28;20739;-65
2022/08/11 13:32:45;;;;;;;2.10;2.00;;;;;;;;;;5049824;28;20209;-66
2022/08/11 13:35:16;;;;;;;2.13;1.93;;;;;;;;;;5061355;28;20891;-65
2022/08/11 13:37:49;;;;;;;2.60;2.40;;;;;;;;;;5063322;28;20248;-65
2022/08/11 13:40:41;;;;;;;2.50;2.30;;;;;;;;;;5057868;28;20293;-66
2022/08/11 13:43:25;;;;;;;2.20;2.10;;;;;;;;;;5086257;28;20189;-65
2022/08/11 13:46:19;;;;;;;2.33;1.90;;;;;;;;;;5068483;28;20209;-65
2022/08/11 13:48:55;;;;;;;2.33;2.13;;;;;;;;;;5079403;28;20256;-65
2022/08/11 13:51:39;;;;;;;2.33;2.13;;;;;;;;;;5061916;28;20213;-65
2022/08/11 13:54:19;;;;;;;2.10;1.93;;;;;;;;;;5052348;28;20747;-64
2022/08/11 13:56:51;;;;;;;3.50;2.40;;;;;;;;;;5079550;28;20206;-65
2022/08/11 13:59:25;;;;;;;2.47;2.27;;;;;;;;;;5070252;28;20611;-65
2022/08/11 14:02:28;;;;;;;2.30;2.03;;;;;;;;;;5063471;28;20259;-65
2022/08/11 14:05:14;;;;;;;3.17;2.00;;;;;;;;;;5082269;28;20194;-65
2022/08/11 14:08:01;;;;;;;2.43;2.20;;;;;;;;;;5084513;28;20209;-65
2022/08/11 14:10:35;;;;;;;2.03;1.93;;;;;;;;;;5079334;28;20245;-65
2022/08/11 14:16:31;;;;;;;3.57;2.20;;;;;;;;;;5060592;28;20662;-64
2022/08/11 14:19:10;;;;;;;2.30;2.10;;;;;;;;;;5065747;28;20202;-64
2022/08/11 14:24:36;;;;;;;2.60;2.40;;;;;;;;;;5082256;28;20737;-65
2022/08/11 14:27:04;;;;;;;2.80;2.30;;;;;;;;;;5088575;28;20213;-65
2022/08/11 14:29:56;;;;;;;2.40;2.20;;;;;;;;;;5089549;28;20493;-65
2022/08/11 14:32:30;;;;;;;2.63;2.43;;;;;;;;;;5083073;28;20630;-64
2022/08/11 14:35:00;;;;;;;2.40;2.20;;;;;;;;;;5066165;28;20236;-65
2022/08/11 14:37:30;;;;;;;2.10;2.00;;;;;;;;;;5067668;28;20643;-65
2022/08/11 14:47:03;;;;;;;2.23;2.00;;;;;;;;;;5084455;28;20614;-65
2022/08/11 14:49:05;;;;;;;2.47;2.27;;;;;;;;;;5086855;28;20232;-65
2022/08/11 14:51:37;;;;;;;2.40;2.20;;;;;;;;;;5085630;28;20201;-65
2022/08/11 14:57:10;;;;;;;2.50;2.30;;;;;;;;;;5088560;28;20205;-65
2022/08/11 14:59:43;;;;;;;3.80;2.30;;;;;;;;;;5080632;28;20485;-65
2022/08/11 15:05:10;;;;;;;2.10;1.90;;;;;;;;;;5073464;28;20232;-65
2022/08/11 15:07:42;;;;;;;2.20;2.00;;;;;;;;;;5082781;28;21052;-65
2022/08/11 15:10:13;;;;;;;2.20;2.00;;;;;;;;;;5078143;27;20285;-65
2022/08/11 15:12:42;;;;;;;1.80;1.70;;;;;;;;;;5065814;28;20193;-64
2022/08/11 15:18:34;;;;;;;2.00;1.90;;;;;;;;;;5069731;28;20208;-65
2022/08/11 15:24:20;;;;;;;2.07;1.97;;;;;;;;;;5078072;28;20201;-65
2022/08/11 15:38:14;;;;;;;1.87;1.73;;;;;;;;;;5070498;28;20266;-66
2022/08/11 15:46:52;;;;;;;1.83;1.73;;;;;;;;;;5079158;28;20208;-66
2022/08/11 15:49:40;;;;;;;1.93;1.83;;;;;;;;;;5081540;28;20758;-64
2022/08/11 15:52:43;;;;;;;4.23;2.20;;;;;;;;;;5085978;28;20254;-63
2022/08/11 15:55:22;;;;;;;3.13;2.33;;;;;;;;;;5087798;28;20237;-63
2022/08/11 16:07:00;;;;;;;2.63;2.10;;;;;;;;;;5084318;28;20189;-64
2022/08/11 16:09:51;;;;;;;3.67;2.00;;;;;;;;;;5052680;28;20211;-63
2022/08/11 16:12:31;;;;;;;5.77;2.10;;;;;;;;;;5084286;28;20209;-64
2022/08/11 16:18:02;;;;;;;3.73;1.93;;;;;;;;;;5066856;28;20203;-63
2022/08/11 16:20:34;;;;;;;2.53;2.07;;;;;;;;;;5067578;28;20197;-63
2022/08/11 16:23:09;;;;;;;4.47;2.40;;;;;;;;;;5074918;28;20476;-63
2022/08/11 16:25:45;;;;;;;3.20;2.30;;;;;;;;;;5081455;28;20302;-64
2022/08/11 16:28:35;;;;;;;2.93;2.10;;;;;;;;;;5076672;28;20196;-64
2022/08/11 16:31:09;;;;;;;3.50;2.30;;;;;;;;;;5069578;28;20201;-64
2022/08/11 16:33:50;;;;;;;2.70;2.00;;;;;;;;;;5063841;28;20659;-64
2022/08/11 16:39:10;;;;;;;2.17;1.97;;;;;;;;;;5082158;28;20181;-64
2022/08/11 16:47:22;;;;;;;2.63;2.20;;;;;;;;;;5060589;28;20197;-64
2022/08/11 16:50:14;;;;;;;2.40;2.20;;;;;;;;;;5029650;28;20223;-63
2022/08/11 16:52:51;;;;;;;2.40;2.10;;;;;;;;;;5043231;28;20198;-64
2022/08/11 16:55:25;;;;;;;2.30;2.10;;;;;;;;;;5041795;28;20238;-62
2022/08/11 17:01:00;;;;;;;2.23;2.03;;;;;;;;;;5039495;28;20480;-63
2022/08/11 17:16:05;;;;;;;2.87;2.17;;;;;;;;;;5042724;28;20221;-64
2022/08/11 17:18:04;;;;;;;2.37;2.17;;;;;;;;;;5036697;28;20222;-64
2022/08/11 17:20:39;;;;;;;2.60;2.40;;;;;;;;;;5044215;28;20601;-65
2022/08/11 17:26:05;;;;;;;3.20;2.63;;;;;;;;;;5042967;28;20202;-65
2022/08/11 17:28:50;;;;;;;3.30;2.63;;;;;;;;;;5035596;28;20206;-65
2022/08/11 17:37:08;;;;;;;2.47;2.27;;;;;;;;;;5041199;28;20285;-62
2022/08/11 17:39:40;;;;;;;2.53;2.20;;;;;;;;;;5039233;28;20217;-65
2022/08/11 17:50:50;;;;;;;2.70;2.50;;;;;;;;;;5063659;28;20566;-64
2022/08/11 18:05:28;;;;;;;2.63;2.03;;;;;;;;;;5059744;28;20631;-64
